sensor_id;sensor_type;location;lat;lon;timestamp;P1;durP1;ratioP1;P2;durP2;ratioP2
22764;SDS011;11549;50.852;3.816;2023-02-28T00:01:35;19.13;;;9.32;;
22764;SDS011;11549;50.852;3.816;2023-02-28T00:04:04;15.52;;;9.10;;
22764;SDS011;11549;50.852;3.816;2023-02-28T00:06:32;14.55;;;9.38;;
22764;SDS011;11549;50.852;3.816;2023-02-28T00:09:00;13.20;;;9.43;;
22764;SDS011;11549;50.852;3.816;2023-02-28T00:11:29;14.48;;;9.18;;
22764;SDS011;11549;50.852;3.816;2023-02-28T00:13:59;14.32;;;9.30;;
22764;SDS011;11549;50.852;3.816;2023-02-28T00:16:27;14.15;;;9.52;;
22764;SDS011;11549;50.852;3.816;2023-02-28T00:18:56;16.20;;;9.90;;
22764;SDS011;11549;50.852;3.816;2023-02-28T00:21:24;12.55;;;9.50;;
22764;SDS011;11549;50.852;3.816;2023-02-28T00:23:53;16.55;;;9.52;;
22764;SDS011;11549;50.852;3.816;2023-02-28T00:26:21;17.88;;;10.30;;
22764;SDS011;11549;50.852;3.816;2023-02-28T00:28:51;15.52;;;9.75;;
22764;SDS011;11549;50.852;3.816;2023-02-28T00:31:21;11.65;;;9.00;;
22764;SDS011;11549;50.852;3.816;2023-02-28T00:33:49;14.18;;;9.15;;
22764;SDS011;11549;50.852;3.816;2023-02-28T00:36:18;16.48;;;10.02;;
22764;SDS011;11549;50.852;3.816;2023-02-28T00:38:46;14.57;;;9.32;;
22764;SDS011;11549;50.852;3.816;2023-02-28T00:41:14;11.27;;;8.88;;
22764;SDS011;11549;50.852;3.816;2023-02-28T00:43:43;11.98;;;8.52;;
22764;SDS011;11549;50.852;3.816;2023-02-28T00:46:11;12.82;;;9.20;;
22764;SDS011;11549;50.852;3.816;2023-02-28T00:48:41;13.32;;;8.85;;
22764;SDS011;11549;50.852;3.816;2023-02-28T00:51:09;12.82;;;9.43;;
22764;SDS011;11549;50.852;3.816;2023-02-28T00:53:37;15.20;;;9.25;;
22764;SDS011;11549;50.852;3.816;2023-02-28T00:56:06;14.50;;;8.95;;
22764;SDS011;11549;50.852;3.816;2023-02-28T00:58:35;13.20;;;9.18;;
22764;SDS011;11549;50.852;3.816;2023-02-28T01:01:03;12.40;;;8.70;;
22764;SDS011;11549;50.852;3.816;2023-02-28T01:03:32;13.07;;;8.88;;
22764;SDS011;11549;50.852;3.816;2023-02-28T01:06:02;12.75;;;8.98;;
22764;SDS011;11549;50.852;3.816;2023-02-28T01:08:31;11.50;;;8.90;;
22764;SDS011;11549;50.852;3.816;2023-02-28T01:11:06;13.45;;;9.15;;
22764;SDS011;11549;50.852;3.816;2023-02-28T01:13:35;13.35;;;9.32;;
22764;SDS011;11549;50.852;3.816;2023-02-28T01:16:04;13.35;;;8.90;;
22764;SDS011;11549;50.852;3.816;2023-02-28T01:18:34;16.88;;;9.35;;
22764;SDS011;11549;50.852;3.816;2023-02-28T01:21:04;13.82;;;9.23;;
22764;SDS011;11549;50.852;3.816;2023-02-28T01:23:33;13.88;;;9.35;;
22764;SDS011;11549;50.852;3.816;2023-02-28T01:26:05;14.40;;;9.50;;
22764;SDS011;11549;50.852;3.816;2023-02-28T01:28:34;14.15;;;9.55;;
22764;SDS011;11549;50.852;3.816;2023-02-28T01:31:03;15.35;;;9.32;;
22764;SDS011;11549;50.852;3.816;2023-02-28T01:33:32;12.32;;;9.10;;
22764;SDS011;11549;50.852;3.816;2023-02-28T01:36:01;13.45;;;8.90;;
22764;SDS011;11549;50.852;3.816;2023-02-28T01:38:32;12.85;;;9.23;;
22764;SDS011;11549;50.852;3.816;2023-02-28T01:41:01;12.20;;;8.88;;
22764;SDS011;11549;50.852;3.816;2023-02-28T01:43:31;13.13;;;8.35;;
22764;SDS011;11549;50.852;3.816;2023-02-28T01:46:19;13.32;;;9.00;;
22764;SDS011;11549;50.852;3.816;2023-02-28T01:48:49;15.00;;;9.20;;
22764;SDS011;11549;50.852;3.816;2023-02-28T01:51:21;15.40;;;9.27;;
22764;SDS011;11549;50.852;3.816;2023-02-28T01:53:56;14.00;;;8.73;;
22764;SDS011;11549;50.852;3.816;2023-02-28T01:56:30;10.65;;;8.45;;
22764;SDS011;11549;50.852;3.816;2023-02-28T01:59:03;15.68;;;9.07;;
22764;SDS011;11549;50.852;3.816;2023-02-28T02:01:32;15.02;;;9.48;;
22764;SDS011;11549;50.852;3.816;2023-02-28T02:04:01;14.35;;;9.13;;
22764;SDS011;11549;50.852;3.816;2023-02-28T02:06:31;11.98;;;9.30;;
22764;SDS011;11549;50.852;3.816;2023-02-28T02:09:04;14.65;;;9.30;;
22764;SDS011;11549;50.852;3.816;2023-02-28T02:11:33;14.93;;;9.20;;
22764;SDS011;11549;50.852;3.816;2023-02-28T02:14:08;14.75;;;9.45;;
22764;SDS011;11549;50.852;3.816;2023-02-28T02:16:48;13.05;;;9.02;;
22764;SDS011;11549;50.852;3.816;2023-02-28T02:19:33;13.25;;;9.15;;
22764;SDS011;11549;50.852;3.816;2023-02-28T02:25:25;13.23;;;9.05;;
22764;SDS011;11549;50.852;3.816;2023-02-28T02:27:59;12.02;;;9.02;;
22764;SDS011;11549;50.852;3.816;2023-02-28T02:30:58;14.15;;;9.07;;
22764;SDS011;11549;50.852;3.816;2023-02-28T02:36:50;14.10;;;8.85;;
22764;SDS011;11549;50.852;3.816;2023-02-28T02:39:25;14.05;;;10.10;;
22764;SDS011;11549;50.852;3.816;2023-02-28T02:42:00;17.98;;;9.75;;
22764;SDS011;11549;50.852;3.816;2023-02-28T02:44:34;15.20;;;9.67;;
22764;SDS011;11549;50.852;3.816;2023-02-28T02:47:09;14.55;;;9.68;;
22764;SDS011;11549;50.852;3.816;2023-02-28T02:49:42;17.30;;;9.77;;
22764;SDS011;11549;50.852;3.816;2023-02-28T02:52:16;15.55;;;9.93;;
22764;SDS011;11549;50.852;3.816;2023-02-28T02:54:48;15.77;;;10.20;;
22764;SDS011;11549;50.852;3.816;2023-02-28T02:57:22;13.73;;;9.85;;
22764;SDS011;11549;50.852;3.816;2023-02-28T02:59:54;14.63;;;9.68;;
22764;SDS011;11549;50.852;3.816;2023-02-28T03:02:24;15.75;;;9.80;;
22764;SDS011;11549;50.852;3.816;2023-02-28T03:04:55;15.57;;;10.27;;
22764;SDS011;11549;50.852;3.816;2023-02-28T03:07:29;15.07;;;9.48;;
22764;SDS011;11549;50.852;3.816;2023-02-28T03:09:57;15.63;;;10.27;;
22764;SDS011;11549;50.852;3.816;2023-02-28T03:12:27;13.10;;;9.85;;
22764;SDS011;11549;50.852;3.816;2023-02-28T03:15:06;16.05;;;10.25;;
22764;SDS011;11549;50.852;3.816;2023-02-28T03:17:56;16.05;;;10.63;;
22764;SDS011;11549;50.852;3.816;2023-02-28T03:20:35;16.88;;;11.07;;
22764;SDS011;11549;50.852;3.816;2023-02-28T03:23:14;14.23;;;10.65;;
22764;SDS011;11549;50.852;3.816;2023-02-28T03:25:48;19.02;;;10.98;;
22764;SDS011;11549;50.852;3.816;2023-02-28T03:28:26;16.08;;;11.00;;
22764;SDS011;11549;50.852;3.816;2023-02-28T03:31:00;16.67;;;10.65;;
22764;SDS011;11549;50.852;3.816;2023-02-28T03:33:38;14.05;;;9.75;;
22764;SDS011;11549;50.852;3.816;2023-02-28T03:36:10;18.05;;;10.77;;
22764;SDS011;11549;50.852;3.816;2023-02-28T03:38:45;17.90;;;11.52;;
22764;SDS011;11549;50.852;3.816;2023-02-28T03:41:17;16.77;;;11.43;;
22764;SDS011;11549;50.852;3.816;2023-02-28T03:43:50;14.50;;;10.68;;
22764;SDS011;11549;50.852;3.816;2023-02-28T03:48:54;14.55;;;10.50;;
22764;SDS011;11549;50.852;3.816;2023-02-28T03:51:27;14.38;;;10.20;;
22764;SDS011;11549;50.852;3.816;2023-02-28T03:53:59;17.50;;;11.68;;
22764;SDS011;11549;50.852;3.816;2023-02-28T03:56:34;17.13;;;11.77;;
22764;SDS011;11549;50.852;3.816;2023-02-28T03:59:07;18.50;;;11.65;;
22764;SDS011;11549;50.852;3.816;2023-02-28T04:01:41;19.15;;;12.13;;
22764;SDS011;11549;50.852;3.816;2023-02-28T04:04:11;18.10;;;12.25;;
22764;SDS011;11549;50.852;3.816;2023-02-28T04:06:41;23.33;;;12.48;;
22764;SDS011;11549;50.852;3.816;2023-02-28T04:09:13;20.83;;;12.73;;
22764;SDS011;11549;50.852;3.816;2023-02-28T04:11:42;22.23;;;12.88;;
22764;SDS011;11549;50.852;3.816;2023-02-28T04:14:13;17.33;;;11.43;;
22764;SDS011;11549;50.852;3.816;2023-02-28T04:16:41;20.65;;;12.95;;
22764;SDS011;11549;50.852;3.816;2023-02-28T04:19:10;22.00;;;12.32;;
22764;SDS011;11549;50.852;3.816;2023-02-28T04:21:40;21.65;;;13.20;;
22764;SDS011;11549;50.852;3.816;2023-02-28T04:24:10;19.52;;;12.68;;
22764;SDS011;11549;50.852;3.816;2023-02-28T04:26:42;19.23;;;12.85;;
22764;SDS011;11549;50.852;3.816;2023-02-28T04:29:13;20.85;;;12.82;;
22764;SDS011;11549;50.852;3.816;2023-02-28T04:34:14;18.40;;;12.23;;
22764;SDS011;11549;50.852;3.816;2023-02-28T04:36:42;19.88;;;13.18;;
22764;SDS011;11549;50.852;3.816;2023-02-28T04:39:12;18.00;;;12.95;;
22764;SDS011;11549;50.852;3.816;2023-02-28T04:41:42;19.20;;;12.75;;
22764;SDS011;11549;50.852;3.816;2023-02-28T04:44:10;19.33;;;13.35;;
22764;SDS011;11549;50.852;3.816;2023-02-28T04:46:39;20.95;;;12.57;;
22764;SDS011;11549;50.852;3.816;2023-02-28T04:49:07;21.50;;;12.75;;
22764;SDS011;11549;50.852;3.816;2023-02-28T04:51:38;18.25;;;12.55;;
22764;SDS011;11549;50.852;3.816;2023-02-28T04:54:06;18.13;;;13.15;;
22764;SDS011;11549;50.852;3.816;2023-02-28T04:56:35;17.83;;;12.15;;
22764;SDS011;11549;50.852;3.816;2023-02-28T04:59:05;19.35;;;12.93;;
22764;SDS011;11549;50.852;3.816;2023-02-28T05:01:34;21.08;;;12.85;;
22764;SDS011;11549;50.852;3.816;2023-02-28T05:04:03;20.25;;;13.13;;
22764;SDS011;11549;50.852;3.816;2023-02-28T05:06:32;18.52;;;12.93;;
22764;SDS011;11549;50.852;3.816;2023-02-28T05:09:01;19.90;;;12.95;;
22764;SDS011;11549;50.852;3.816;2023-02-28T05:11:30;18.45;;;12.68;;
22764;SDS011;11549;50.852;3.816;2023-02-28T05:14:01;20.00;;;12.75;;
22764;SDS011;11549;50.852;3.816;2023-02-28T05:16:32;19.42;;;12.88;;
22764;SDS011;11549;50.852;3.816;2023-02-28T05:19:00;18.73;;;12.70;;
22764;SDS011;11549;50.852;3.816;2023-02-28T05:21:30;18.17;;;12.88;;
22764;SDS011;11549;50.852;3.816;2023-02-28T05:24:00;22.55;;;13.88;;
22764;SDS011;11549;50.852;3.816;2023-02-28T05:26:30;22.95;;;13.05;;
22764;SDS011;11549;50.852;3.816;2023-02-28T05:29:01;21.42;;;13.45;;
22764;SDS011;11549;50.852;3.816;2023-02-28T05:31:29;21.92;;;13.50;;
22764;SDS011;11549;50.852;3.816;2023-02-28T05:33:59;21.73;;;12.93;;
22764;SDS011;11549;50.852;3.816;2023-02-28T05:36:28;17.65;;;12.45;;
22764;SDS011;11549;50.852;3.816;2023-02-28T05:38:56;22.60;;;12.90;;
22764;SDS011;11549;50.852;3.816;2023-02-28T05:41:24;18.65;;;12.93;;
22764;SDS011;11549;50.852;3.816;2023-02-28T05:43:54;18.45;;;13.07;;
22764;SDS011;11549;50.852;3.816;2023-02-28T05:46:22;17.95;;;12.38;;
22764;SDS011;11549;50.852;3.816;2023-02-28T05:48:51;19.23;;;12.88;;
22764;SDS011;11549;50.852;3.816;2023-02-28T05:51:20;19.83;;;12.85;;
22764;SDS011;11549;50.852;3.816;2023-02-28T05:53:48;20.80;;;14.02;;
22764;SDS011;11549;50.852;3.816;2023-02-28T05:56:16;21.45;;;13.65;;
22764;SDS011;11549;50.852;3.816;2023-02-28T05:58:44;22.38;;;14.25;;
22764;SDS011;11549;50.852;3.816;2023-02-28T06:01:20;19.38;;;13.32;;
22764;SDS011;11549;50.852;3.816;2023-02-28T06:03:51;18.67;;;13.43;;
22764;SDS011;11549;50.852;3.816;2023-02-28T06:06:19;18.23;;;12.85;;
22764;SDS011;11549;50.852;3.816;2023-02-28T06:08:48;20.30;;;13.45;;
22764;SDS011;11549;50.852;3.816;2023-02-28T06:11:16;18.67;;;12.63;;
22764;SDS011;11549;50.852;3.816;2023-02-28T06:13:46;20.63;;;12.38;;
22764;SDS011;11549;50.852;3.816;2023-02-28T06:16:14;20.90;;;12.70;;
22764;SDS011;11549;50.852;3.816;2023-02-28T06:18:43;17.52;;;12.68;;
22764;SDS011;11549;50.852;3.816;2023-02-28T06:21:13;17.42;;;12.85;;
22764;SDS011;11549;50.852;3.816;2023-02-28T06:23:41;21.25;;;12.85;;
22764;SDS011;11549;50.852;3.816;2023-02-28T06:26:10;19.83;;;13.27;;
22764;SDS011;11549;50.852;3.816;2023-02-28T06:28:38;18.20;;;12.65;;
22764;SDS011;11549;50.852;3.816;2023-02-28T06:31:07;19.13;;;13.02;;
22764;SDS011;11549;50.852;3.816;2023-02-28T06:33:37;17.50;;;13.43;;
22764;SDS011;11549;50.852;3.816;2023-02-28T06:36:07;19.40;;;12.98;;
22764;SDS011;11549;50.852;3.816;2023-02-28T06:38:37;20.52;;;12.60;;
22764;SDS011;11549;50.852;3.816;2023-02-28T06:41:07;17.92;;;12.32;;
22764;SDS011;11549;50.852;3.816;2023-02-28T06:43:36;18.80;;;12.50;;
22764;SDS011;11549;50.852;3.816;2023-02-28T06:46:07;17.83;;;11.65;;
22764;SDS011;11549;50.852;3.816;2023-02-28T06:48:38;19.65;;;12.82;;
22764;SDS011;11549;50.852;3.816;2023-02-28T06:51:07;18.40;;;12.32;;
22764;SDS011;11549;50.852;3.816;2023-02-28T06:53:42;21.70;;;13.20;;
22764;SDS011;11549;50.852;3.816;2023-02-28T06:56:11;17.95;;;11.98;;
22764;SDS011;11549;50.852;3.816;2023-02-28T06:58:41;18.15;;;11.82;;
22764;SDS011;11549;50.852;3.816;2023-02-28T07:01:10;21.00;;;12.32;;
22764;SDS011;11549;50.852;3.816;2023-02-28T07:03:38;19.83;;;12.15;;
22764;SDS011;11549;50.852;3.816;2023-02-28T07:06:07;17.38;;;11.85;;
22764;SDS011;11549;50.852;3.816;2023-02-28T07:08:35;16.88;;;10.95;;
22764;SDS011;11549;50.852;3.816;2023-02-28T07:11:05;17.30;;;11.32;;
22764;SDS011;11549;50.852;3.816;2023-02-28T07:13:33;18.23;;;12.63;;
22764;SDS011;11549;50.852;3.816;2023-02-28T07:16:03;21.17;;;11.93;;
22764;SDS011;11549;50.852;3.816;2023-02-28T07:18:34;16.52;;;11.52;;
22764;SDS011;11549;50.852;3.816;2023-02-28T07:21:03;21.10;;;12.52;;
22764;SDS011;11549;50.852;3.816;2023-02-28T07:23:33;17.38;;;11.75;;
22764;SDS011;11549;50.852;3.816;2023-02-28T07:26:01;16.98;;;11.68;;
22764;SDS011;11549;50.852;3.816;2023-02-28T07:28:31;16.98;;;11.48;;
22764;SDS011;11549;50.852;3.816;2023-02-28T07:31:03;18.02;;;11.85;;
22764;SDS011;11549;50.852;3.816;2023-02-28T07:33:32;16.83;;;11.48;;
22764;SDS011;11549;50.852;3.816;2023-02-28T07:36:01;17.13;;;11.40;;
22764;SDS011;11549;50.852;3.816;2023-02-28T07:38:31;19.98;;;12.02;;
22764;SDS011;11549;50.852;3.816;2023-02-28T07:41:01;16.15;;;11.00;;
22764;SDS011;11549;50.852;3.816;2023-02-28T07:43:32;19.20;;;11.30;;
22764;SDS011;11549;50.852;3.816;2023-02-28T07:46:02;19.27;;;11.35;;
22764;SDS011;11549;50.852;3.816;2023-02-28T07:48:32;17.20;;;11.35;;
22764;SDS011;11549;50.852;3.816;2023-02-28T07:51:01;18.45;;;10.35;;
22764;SDS011;11549;50.852;3.816;2023-02-28T07:53:30;16.63;;;11.63;;
22764;SDS011;11549;50.852;3.816;2023-02-28T07:55:58;16.60;;;11.15;;
22764;SDS011;11549;50.852;3.816;2023-02-28T07:58:28;17.38;;;10.90;;
22764;SDS011;11549;50.852;3.816;2023-02-28T08:00:58;17.75;;;10.57;;
22764;SDS011;11549;50.852;3.816;2023-02-28T08:03:33;16.25;;;10.85;;
22764;SDS011;11549;50.852;3.816;2023-02-28T08:06:02;16.70;;;10.73;;
22764;SDS011;11549;50.852;3.816;2023-02-28T08:08:30;15.38;;;10.75;;
22764;SDS011;11549;50.852;3.816;2023-02-28T08:10:59;14.30;;;10.45;;
22764;SDS011;11549;50.852;3.816;2023-02-28T08:13:29;18.40;;;10.98;;
22764;SDS011;11549;50.852;3.816;2023-02-28T08:16:00;16.58;;;11.38;;
22764;SDS011;11549;50.852;3.816;2023-02-28T08:18:30;17.42;;;12.00;;
22764;SDS011;11549;50.852;3.816;2023-02-28T08:20:59;15.85;;;10.95;;
22764;SDS011;11549;50.852;3.816;2023-02-28T08:23:33;18.20;;;12.00;;
22764;SDS011;11549;50.852;3.816;2023-02-28T08:26:01;18.38;;;11.35;;
22764;SDS011;11549;50.852;3.816;2023-02-28T08:28:30;17.05;;;11.02;;
22764;SDS011;11549;50.852;3.816;2023-02-28T08:31:01;18.38;;;11.55;;
22764;SDS011;11549;50.852;3.816;2023-02-28T08:33:35;19.30;;;10.48;;
22764;SDS011;11549;50.852;3.816;2023-02-28T08:36:06;16.13;;;10.10;;
22764;SDS011;11549;50.852;3.816;2023-02-28T08:38:35;16.55;;;11.32;;
22764;SDS011;11549;50.852;3.816;2023-02-28T08:41:04;15.48;;;10.40;;
22764;SDS011;11549;50.852;3.816;2023-02-28T08:43:34;12.98;;;9.98;;
22764;SDS011;11549;50.852;3.816;2023-02-28T08:46:04;18.17;;;10.18;;
22764;SDS011;11549;50.852;3.816;2023-02-28T08:48:34;17.80;;;11.60;;
22764;SDS011;11549;50.852;3.816;2023-02-28T08:51:05;15.07;;;9.63;;
22764;SDS011;11549;50.852;3.816;2023-02-28T08:53:35;14.85;;;9.45;;
22764;SDS011;11549;50.852;3.816;2023-02-28T08:56:06;14.35;;;9.50;;
22764;SDS011;11549;50.852;3.816;2023-02-28T08:58:36;13.07;;;8.90;;
22764;SDS011;11549;50.852;3.816;2023-02-28T09:01:10;14.82;;;8.20;;
22764;SDS011;11549;50.852;3.816;2023-02-28T09:03:40;11.13;;;7.35;;
22764;SDS011;11549;50.852;3.816;2023-02-28T09:06:09;14.48;;;7.35;;
22764;SDS011;11549;50.852;3.816;2023-02-28T09:08:38;12.85;;;7.40;;
22764;SDS011;11549;50.852;3.816;2023-02-28T09:11:07;11.15;;;7.45;;
22764;SDS011;11549;50.852;3.816;2023-02-28T09:13:36;10.18;;;6.32;;
22764;SDS011;11549;50.852;3.816;2023-02-28T09:16:06;10.45;;;6.00;;
22764;SDS011;11549;50.852;3.816;2023-02-28T09:18:39;6.95;;;5.13;;
22764;SDS011;11549;50.852;3.816;2023-02-28T09:21:08;9.13;;;5.00;;
22764;SDS011;11549;50.852;3.816;2023-02-28T09:23:39;8.85;;;5.50;;
22764;SDS011;11549;50.852;3.816;2023-02-28T09:26:12;9.18;;;5.22;;
22764;SDS011;11549;50.852;3.816;2023-02-28T09:28:41;8.50;;;4.90;;
22764;SDS011;11549;50.852;3.816;2023-02-28T09:31:11;9.45;;;5.43;;
22764;SDS011;11549;50.852;3.816;2023-02-28T09:33:42;8.75;;;5.57;;
22764;SDS011;11549;50.852;3.816;2023-02-28T09:36:11;9.90;;;4.50;;
22764;SDS011;11549;50.852;3.816;2023-02-28T09:38:39;6.68;;;4.70;;
22764;SDS011;11549;50.852;3.816;2023-02-28T09:41:11;7.68;;;4.15;;
22764;SDS011;11549;50.852;3.816;2023-02-28T09:43:43;7.78;;;4.25;;
22764;SDS011;11549;50.852;3.816;2023-02-28T09:46:20;6.60;;;4.60;;
22764;SDS011;11549;50.852;3.816;2023-02-28T09:48:56;11.20;;;5.10;;
22764;SDS011;11549;50.852;3.816;2023-02-28T09:51:44;9.88;;;5.63;;
22764;SDS011;11549;50.852;3.816;2023-02-28T09:54:18;7.43;;;4.50;;
22764;SDS011;11549;50.852;3.816;2023-02-28T09:56:49;7.82;;;4.47;;
22764;SDS011;11549;50.852;3.816;2023-02-28T09:59:25;10.80;;;4.93;;
22764;SDS011;11549;50.852;3.816;2023-02-28T10:02:04;6.88;;;4.40;;
22764;SDS011;11549;50.852;3.816;2023-02-28T10:04:46;6.88;;;4.72;;
22764;SDS011;11549;50.852;3.816;2023-02-28T10:07:24;6.88;;;4.55;;
22764;SDS011;11549;50.852;3.816;2023-02-28T10:10:04;6.13;;;4.50;;
22764;SDS011;11549;50.852;3.816;2023-02-28T10:12:42;6.65;;;4.60;;
22764;SDS011;11549;50.852;3.816;2023-02-28T10:15:13;6.82;;;4.53;;
22764;SDS011;11549;50.852;3.816;2023-02-28T10:17:43;8.82;;;4.10;;
22764;SDS011;11549;50.852;3.816;2023-02-28T10:20:33;7.68;;;3.80;;
22764;SDS011;11549;50.852;3.816;2023-02-28T10:23:09;6.28;;;3.53;;
22764;SDS011;11549;50.852;3.816;2023-02-28T10:25:42;5.78;;;3.78;;
22764;SDS011;11549;50.852;3.816;2023-02-28T10:28:16;7.45;;;4.07;;
22764;SDS011;11549;50.852;3.816;2023-02-28T10:30:46;5.53;;;3.17;;
22764;SDS011;11549;50.852;3.816;2023-02-28T10:33:20;6.88;;;3.60;;
22764;SDS011;11549;50.852;3.816;2023-02-28T10:35:52;7.10;;;4.00;;
22764;SDS011;11549;50.852;3.816;2023-02-28T10:38:21;4.82;;;3.53;;
22764;SDS011;11549;50.852;3.816;2023-02-28T10:40:51;7.35;;;3.80;;
22764;SDS011;11549;50.852;3.816;2023-02-28T10:43:30;5.40;;;3.10;;
22764;SDS011;11549;50.852;3.816;2023-02-28T10:45:59;5.43;;;2.70;;
22764;SDS011;11549;50.852;3.816;2023-02-28T10:48:34;5.50;;;2.90;;
22764;SDS011;11549;50.852;3.816;2023-02-28T10:51:07;5.15;;;2.53;;
22764;SDS011;11549;50.852;3.816;2023-02-28T10:53:38;5.22;;;2.92;;
22764;SDS011;11549;50.852;3.816;2023-02-28T10:56:27;7.05;;;3.10;;
22764;SDS011;11549;50.852;3.816;2023-02-28T10:58:58;5.53;;;3.10;;
22764;SDS011;11549;50.852;3.816;2023-02-28T11:01:35;5.00;;;3.00;;
22764;SDS011;11549;50.852;3.816;2023-02-28T11:04:16;4.22;;;2.80;;
22764;SDS011;11549;50.852;3.816;2023-02-28T11:06:51;5.10;;;2.92;;
22764;SDS011;11549;50.852;3.816;2023-02-28T11:09:27;5.53;;;2.92;;
22764;SDS011;11549;50.852;3.816;2023-02-28T11:11:58;4.63;;;2.70;;
22764;SDS011;11549;50.852;3.816;2023-02-28T11:14:28;4.90;;;2.70;;
22764;SDS011;11549;50.852;3.816;2023-02-28T11:17:14;5.30;;;2.50;;
22764;SDS011;11549;50.852;3.816;2023-02-28T11:19:47;5.53;;;2.75;;
22764;SDS011;11549;50.852;3.816;2023-02-28T11:22:21;6.45;;;2.90;;
22764;SDS011;11549;50.852;3.816;2023-02-28T11:24:55;4.28;;;2.72;;
22764;SDS011;11549;50.852;3.816;2023-02-28T11:27:40;5.22;;;2.85;;
22764;SDS011;11549;50.852;3.816;2023-02-28T11:30:32;4.93;;;2.88;;
22764;SDS011;11549;50.852;3.816;2023-02-28T11:33:17;5.65;;;3.15;;
22764;SDS011;11549;50.852;3.816;2023-02-28T11:35:51;3.90;;;2.95;;
22764;SDS011;11549;50.852;3.816;2023-02-28T11:38:23;6.13;;;3.10;;
22764;SDS011;11549;50.852;3.816;2023-02-28T11:40:55;5.00;;;2.70;;
22764;SDS011;11549;50.852;3.816;2023-02-28T11:43:36;6.05;;;3.10;;
22764;SDS011;11549;50.852;3.816;2023-02-28T11:46:17;4.15;;;2.70;;
22764;SDS011;11549;50.852;3.816;2023-02-28T11:48:57;4.07;;;2.85;;
22764;SDS011;11549;50.852;3.816;2023-02-28T11:51:32;5.00;;;2.88;;
22764;SDS011;11549;50.852;3.816;2023-02-28T11:57:14;4.20;;;2.53;;
22764;SDS011;11549;50.852;3.816;2023-02-28T11:59:52;4.45;;;2.70;;
22764;SDS011;11549;50.852;3.816;2023-02-28T12:02:28;3.75;;;2.33;;
22764;SDS011;11549;50.852;3.816;2023-02-28T12:07:55;4.63;;;2.78;;
22764;SDS011;11549;50.852;3.816;2023-02-28T12:10:33;3.85;;;2.53;;
22764;SDS011;11549;50.852;3.816;2023-02-28T12:13:11;4.32;;;2.53;;
22764;SDS011;11549;50.852;3.816;2023-02-28T12:15:49;4.10;;;2.38;;
22764;SDS011;11549;50.852;3.816;2023-02-28T12:18:41;3.65;;;2.70;;
22764;SDS011;11549;50.852;3.816;2023-02-28T12:21:20;5.22;;;2.65;;
22764;SDS011;11549;50.852;3.816;2023-02-28T12:26:48;4.28;;;2.80;;
22764;SDS011;11549;50.852;3.816;2023-02-28T12:29:21;5.10;;;2.97;;
22764;SDS011;11549;50.852;3.816;2023-02-28T12:31:53;3.95;;;2.88;;
22764;SDS011;11549;50.852;3.816;2023-02-28T12:34:27;4.40;;;3.00;;
22764;SDS011;11549;50.852;3.816;2023-02-28T12:37:01;4.93;;;3.10;;
22764;SDS011;11549;50.852;3.816;2023-02-28T12:39:36;5.75;;;3.17;;
22764;SDS011;11549;50.852;3.816;2023-02-28T12:42:17;4.97;;;3.15;;
22764;SDS011;11549;50.852;3.816;2023-02-28T12:44:54;6.22;;;3.22;;
22764;SDS011;11549;50.852;3.816;2023-02-28T12:47:25;5.20;;;3.25;;
22764;SDS011;11549;50.852;3.816;2023-02-28T12:49:56;4.78;;;3.45;;
22764;SDS011;11549;50.852;3.816;2023-02-28T12:52:29;5.63;;;3.40;;
22764;SDS011;11549;50.852;3.816;2023-02-28T12:55:08;4.38;;;3.00;;
22764;SDS011;11549;50.852;3.816;2023-02-28T12:57:45;5.60;;;3.25;;
22764;SDS011;11549;50.852;3.816;2023-02-28T13:00:19;4.93;;;3.40;;
22764;SDS011;11549;50.852;3.816;2023-02-28T13:02:54;5.22;;;3.28;;
22764;SDS011;11549;50.852;3.816;2023-02-28T13:06:05;5.25;;;3.50;;
22764;SDS011;11549;50.852;3.816;2023-02-28T13:08:58;5.18;;;3.47;;
22764;SDS011;11549;50.852;3.816;2023-02-28T13:11:30;5.72;;;3.40;;
22764;SDS011;11549;50.852;3.816;2023-02-28T13:14:02;5.53;;;3.63;;
22764;SDS011;11549;50.852;3.816;2023-02-28T13:16:50;5.97;;;3.83;;
22764;SDS011;11549;50.852;3.816;2023-02-28T13:19:24;5.88;;;3.72;;
22764;SDS011;11549;50.852;3.816;2023-02-28T13:21:55;4.75;;;3.40;;
22764;SDS011;11549;50.852;3.816;2023-02-28T13:24:45;5.45;;;3.42;;
22764;SDS011;11549;50.852;3.816;2023-02-28T13:30:02;4.43;;;3.20;;
22764;SDS011;11549;50.852;3.816;2023-02-28T13:36:23;6.90;;;3.45;;
22764;SDS011;11549;50.852;3.816;2023-02-28T13:38:55;5.45;;;3.45;;
22764;SDS011;11549;50.852;3.816;2023-02-28T13:41:43;6.55;;;3.63;;
22764;SDS011;11549;50.852;3.816;2023-02-28T13:44:12;4.35;;;3.33;;
22764;SDS011;11549;50.852;3.816;2023-02-28T13:49:52;4.68;;;3.20;;
22764;SDS011;11549;50.852;3.816;2023-02-28T13:52:22;4.95;;;3.30;;
22764;SDS011;11549;50.852;3.816;2023-02-28T13:55:06;5.80;;;3.08;;
22764;SDS011;11549;50.852;3.816;2023-02-28T13:57:56;4.45;;;3.10;;
22764;SDS011;11549;50.852;3.816;2023-02-28T14:00:36;6.15;;;3.17;;
22764;SDS011;11549;50.852;3.816;2023-02-28T14:03:22;4.53;;;3.50;;
22764;SDS011;11549;50.852;3.816;2023-02-28T14:06:15;5.20;;;3.60;;
22764;SDS011;11549;50.852;3.816;2023-02-28T14:08:52;7.22;;;3.40;;
22764;SDS011;11549;50.852;3.816;2023-02-28T14:11:30;6.13;;;3.38;;
22764;SDS011;11549;50.852;3.816;2023-02-28T14:14:00;5.28;;;3.70;;
22764;SDS011;11549;50.852;3.816;2023-02-28T14:16:35;5.47;;;3.40;;
22764;SDS011;11549;50.852;3.816;2023-02-28T14:19:10;5.68;;;3.42;;
22764;SDS011;11549;50.852;3.816;2023-02-28T14:21:49;5.35;;;3.40;;
22764;SDS011;11549;50.852;3.816;2023-02-28T14:24:32;5.03;;;3.40;;
22764;SDS011;11549;50.852;3.816;2023-02-28T14:30:15;5.00;;;3.67;;
22764;SDS011;11549;50.852;3.816;2023-02-28T14:33:10;4.68;;;3.50;;
22764;SDS011;11549;50.852;3.816;2023-02-28T14:35:49;5.18;;;3.90;;
22764;SDS011;11549;50.852;3.816;2023-02-28T14:38:28;6.28;;;3.70;;
22764;SDS011;11549;50.852;3.816;2023-02-28T14:41:00;5.38;;;3.85;;
22764;SDS011;11549;50.852;3.816;2023-02-28T14:46:01;5.88;;;3.83;;
22764;SDS011;11549;50.852;3.816;2023-02-28T14:48:32;5.50;;;3.92;;
22764;SDS011;11549;50.852;3.816;2023-02-28T14:51:02;5.30;;;3.75;;
22764;SDS011;11549;50.852;3.816;2023-02-28T14:53:36;5.72;;;3.67;;
22764;SDS011;11549;50.852;3.816;2023-02-28T14:58:34;5.15;;;3.55;;
22764;SDS011;11549;50.852;3.816;2023-02-28T15:01:03;6.13;;;4.07;;
22764;SDS011;11549;50.852;3.816;2023-02-28T15:03:34;4.78;;;3.58;;
22764;SDS011;11549;50.852;3.816;2023-02-28T15:06:04;7.65;;;4.18;;
22764;SDS011;11549;50.852;3.816;2023-02-28T15:08:33;5.03;;;3.90;;
22764;SDS011;11549;50.852;3.816;2023-02-28T15:11:04;5.57;;;4.13;;
22764;SDS011;11549;50.852;3.816;2023-02-28T15:13:36;7.15;;;4.43;;
22764;SDS011;11549;50.852;3.816;2023-02-28T15:16:08;6.25;;;3.88;;
22764;SDS011;11549;50.852;3.816;2023-02-28T15:18:43;7.10;;;4.07;;
22764;SDS011;11549;50.852;3.816;2023-02-28T15:21:15;6.55;;;4.05;;
22764;SDS011;11549;50.852;3.816;2023-02-28T15:23:48;6.43;;;4.28;;
22764;SDS011;11549;50.852;3.816;2023-02-28T15:26:20;5.15;;;3.80;;
22764;SDS011;11549;50.852;3.816;2023-02-28T15:28:55;5.37;;;3.87;;
22764;SDS011;11549;50.852;3.816;2023-02-28T15:31:27;7.32;;;3.83;;
22764;SDS011;11549;50.852;3.816;2023-02-28T15:34:15;6.60;;;4.20;;
22764;SDS011;11549;50.852;3.816;2023-02-28T15:36:49;7.55;;;4.18;;
22764;SDS011;11549;50.852;3.816;2023-02-28T15:39:20;5.13;;;4.07;;
22764;SDS011;11549;50.852;3.816;2023-02-28T15:44:38;7.07;;;4.13;;
22764;SDS011;11549;50.852;3.816;2023-02-28T15:47:12;6.28;;;4.30;;
22764;SDS011;11549;50.852;3.816;2023-02-28T15:49:46;9.02;;;4.20;;